Terminal Aerodrome Forecast
Issued by NWS

Home | Current Version | Previous Version | Text Only | Print | Product List | Glossary On
Versions: 1 2 3 4 5 6 7 8 9 10 11 12 13 14 15 16 17 18 19 20 21 22 23 24 25 26 27 28 29 30
998
FTUS42 KCAE 031136
TAFCUB
TAF
KCUB 031136Z 0312/0412 20006KT P6SM VCSH SCT025 BKN080
      TEMPO 0312/0313 5SM -SHRA BR SCT015 BKN025 OVC100
     FM031400 24011G16KT P6SM SCT040
     FM032000 25010G17KT P6SM VCTS BKN050CB BKN110
     FM040400 26006KT P6SM BKN080=

USA.gov is the U.S. government's official web portal to all federal, state and local government web resources and services.